Time,TemperatureF,DewpointF,PressureIn,WindDirection,WindDirectionDegrees,WindSpeedMPH,WindSpeedGustMPH,Humidity,HourlyPrecipIn,Conditions,Clouds,dailyrainin,SolarRadiationWatts/m^2,SoftwareType,DateUTC
2013-12-16 00:07:00,68.7,65.0,30.08,NE,49,0.0,-999.0,89,-99.99,,,0.19,0,weatherlink.com 1.10,2013-12-16 05:07:00,
2013-12-16 00:22:00,68.3,65.0,30.08,NE,49,0.0,-999.0,89,-99.99,,,0.19,0,weatherlink.com 1.10,2013-12-16 05:22:00,
2013-12-16 00:37:00,67.8,64.0,30.08,NE,56,0.0,-999.0,86,-99.99,,,0.19,0,weatherlink.com 1.10,2013-12-16 05:37:00,
2013-12-16 00:52:00,67.6,63.0,30.08,ENE,67,0.0,-999.0,85,-99.99,,,0.19,0,weatherlink.com 1.10,2013-12-16 05:52:00,
2013-12-16 01:07:00,67.6,63.0,30.08,NE,47,0.0,-999.0,85,-99.99,,,0.19,0,weatherlink.com 1.10,2013-12-16 06:07:00,
2013-12-16 01:22:00,67.5,63.0,30.08,ENE,65,0.0,-999.0,84,-99.99,,,0.19,0,weatherlink.com 1.10,2013-12-16 06:22:00,
2013-12-16 01:37:00,67.4,62.0,30.08,ENE,71,0.0,-999.0,83,-99.99,,,0.19,0,weatherlink.com 1.10,2013-12-16 06:37:00,
2013-12-16 01:52:00,67.1,62.0,30.08,NE,47,3.0,-999.0,83,-99.99,,,0.19,0,weatherlink.com 1.10,2013-12-16 06:52:00,
2013-12-16 02:07:00,66.8,62.0,30.07,NNW,348,0.0,-999.0,83,-99.99,,,0.19,0,weatherlink.com 1.10,2013-12-16 07:07:00,
2013-12-16 02:22:00,66.4,61.0,30.07,East,86,0.0,-999.0,82,-99.99,,,0.19,0,weatherlink.com 1.10,2013-12-16 07:22:00,
2013-12-16 02:37:00,66.4,60.0,30.07,NNE,26,0.0,-999.0,81,-99.99,,,0.19,0,weatherlink.com 1.10,2013-12-16 07:37:00,
2013-12-16 02:52:00,66.5,61.0,30.07,NE,45,0.0,-999.0,81,-99.99,,,0.19,0,weatherlink.com 1.10,2013-12-16 07:52:00,
2013-12-16 03:07:00,66.4,61.0,30.07,ENE,72,0.0,-999.0,82,-99.99,,,0.00,0,weatherlink.com 1.10,2013-12-16 08:07:00,
2013-12-16 03:22:00,66.2,61.0,30.08,ENE,58,0.0,-999.0,82,-99.99,,,0.00,0,weatherlink.com 1.10,2013-12-16 08:22:00,
2013-12-16 03:37:00,66.0,61.0,30.08,ESE,106,1.0,-999.0,83,-99.99,,,0.00,0,weatherlink.com 1.10,2013-12-16 08:37:00,
2013-12-16 03:52:00,65.9,61.0,30.08,NNE,23,0.0,-999.0,83,-99.99,,,0.00,0,weatherlink.com 1.10,2013-12-16 08:52:00,
2013-12-16 04:07:00,65.8,61.0,30.08,NE,40,0.0,-999.0,83,-99.99,,,0.00,0,weatherlink.com 1.10,2013-12-16 09:07:00,
2013-12-16 04:22:00,65.6,60.0,30.08,ENE,76,0.0,-999.0,83,-99.99,,,0.00,0,weatherlink.com 1.10,2013-12-16 09:22:00,
2013-12-16 04:37:00,65.4,61.0,30.08,NE,49,0.0,-999.0,84,-99.99,,,0.00,0,weatherlink.com 1.10,2013-12-16 09:37:00,
2013-12-16 04:52:00,65.2,61.0,30.08,NE,36,0.0,-999.0,85,-99.99,,,0.00,0,weatherlink.com 1.10,2013-12-16 09:52:00,
2013-12-16 05:07:00,65.1,61.0,30.09,North,5,0.0,-999.0,86,-99.99,,,0.00,0,weatherlink.com 1.10,2013-12-16 10:07:00,
2013-12-16 05:22:00,64.9,61.0,30.09,NE,44,0.0,-999.0,86,-99.99,,,0.00,0,weatherlink.com 1.10,2013-12-16 10:22:00,
2013-12-16 05:37:00,64.7,61.0,30.09,East,94,0.0,-999.0,86,-99.99,,,0.00,0,weatherlink.com 1.10,2013-12-16 10:37:00,
2013-12-16 05:52:00,64.7,61.0,30.09,NE,37,1.0,-999.0,87,-99.99,,,0.00,0,weatherlink.com 1.10,2013-12-16 10:52:00,
2013-12-16 06:07:00,64.5,61.0,30.10,North,360,0.0,-999.0,87,-99.99,,,0.00,0,weatherlink.com 1.10,2013-12-16 11:07:00,
2013-12-16 06:22:00,64.2,60.0,30.10,North,11,0.0,-999.0,87,-99.99,,,0.00,0,weatherlink.com 1.10,2013-12-16 11:22:00,
2013-12-16 06:38:00,64.0,60.0,30.11,NNE,30,0.0,-999.0,86,-99.99,,,0.00,0,weatherlink.com 1.10,2013-12-16 11:38:00,
2013-12-16 06:52:00,63.8,60.0,30.11,ENE,65,0.0,-999.0,86,-99.99,,,0.00,0,weatherlink.com 1.10,2013-12-16 11:52:00,
2013-12-16 07:07:00,63.7,60.0,30.12,ESE,117,0.0,-999.0,86,-99.99,,,0.00,0,weatherlink.com 1.10,2013-12-16 12:07:00,
2013-12-16 07:22:00,63.7,60.0,30.12,NE,55,0.0,-999.0,87,-99.99,,,0.00,12,weatherlink.com 1.10,2013-12-16 12:22:00,
2013-12-16 07:37:00,63.7,60.0,30.12,North,355,0.0,-999.0,87,-99.99,,,0.00,25,weatherlink.com 1.10,2013-12-16 12:37:00,
2013-12-16 07:52:00,63.6,60.0,30.13,North,10,0.0,-999.0,87,-99.99,,,0.00,39,weatherlink.com 1.10,2013-12-16 12:52:00,
2013-12-16 08:07:00,63.8,60.0,30.14,NE,49,0.0,-999.0,87,-99.99,,,0.00,54,weatherlink.com 1.10,2013-12-16 13:07:00,
2013-12-16 08:22:00,64.0,60.0,30.14,NNE,22,0.0,-999.0,86,-99.99,,,0.00,58,weatherlink.com 1.10,2013-12-16 13:22:00,
2013-12-16 08:37:00,64.5,60.0,30.14,ENE,58,0.0,-999.0,86,-99.99,,,0.00,72,weatherlink.com 1.10,2013-12-16 13:37:00,
2013-12-16 08:52:00,65.1,61.0,30.15,ENE,57,0.0,-999.0,85,-99.99,,,0.00,97,weatherlink.com 1.10,2013-12-16 13:52:00,
2013-12-16 09:07:00,65.2,60.0,30.15,ENE,57,0.0,-999.0,83,-99.99,,,0.00,72,weatherlink.com 1.10,2013-12-16 14:07:00,
2013-12-16 09:22:00,65.0,60.0,30.15,NNE,19,0.0,-999.0,83,-99.99,,,0.00,70,weatherlink.com 1.10,2013-12-16 14:22:00,
2013-12-16 09:37:00,65.6,60.0,30.15,East,94,0.0,-999.0,83,-99.99,,,0.00,79,weatherlink.com 1.10,2013-12-16 14:37:00,
2013-12-16 09:52:00,66.6,61.0,30.16,East,85,0.0,-999.0,81,-99.99,,,0.00,98,weatherlink.com 1.10,2013-12-16 14:52:00,
2013-12-16 10:22:00,67.5,60.0,30.17,WNW,288,0.0,-999.0,78,-99.99,,,0.00,142,weatherlink.com 1.10,2013-12-16 15:22:00,
2013-12-16 10:37:00,68.3,61.0,30.16,North,360,0.0,-999.0,78,-99.99,,,0.00,229,weatherlink.com 1.10,2013-12-16 15:37:00,
2013-12-16 10:52:00,68.8,61.0,30.16,ENE,65,0.0,-999.0,76,-99.99,,,0.00,399,weatherlink.com 1.10,2013-12-16 15:52:00,
2013-12-16 11:07:00,69.2,61.0,30.16,NW,325,0.0,-999.0,74,-99.99,,,0.00,489,weatherlink.com 1.10,2013-12-16 16:07:00,
2013-12-16 11:22:00,69.7,61.0,30.15,ENE,59,0.0,-999.0,73,-99.99,,,0.00,520,weatherlink.com 1.10,2013-12-16 16:22:00,
2013-12-16 11:37:00,70.2,61.0,30.14,NNW,344,0.0,-999.0,72,-99.99,,,0.00,541,weatherlink.com 1.10,2013-12-16 16:37:00,
2013-12-16 11:52:00,70.9,61.0,30.14,NW,322,2.0,-999.0,71,-99.99,,,0.00,517,weatherlink.com 1.10,2013-12-16 16:52:00,
2013-12-16 12:07:00,71.8,61.0,30.13,NNW,340,0.0,-999.0,69,-99.99,,,0.00,526,weatherlink.com 1.10,2013-12-16 17:07:00,
2013-12-16 12:22:00,72.2,62.0,30.12,East,82,0.0,-999.0,70,-99.99,,,0.00,559,weatherlink.com 1.10,2013-12-16 17:22:00,
2013-12-16 12:37:00,72.2,62.0,30.12,East,97,0.0,-999.0,71,-99.99,,,0.00,461,weatherlink.com 1.10,2013-12-16 17:37:00,
2013-12-16 12:52:00,71.4,62.0,30.11,North,355,2.0,-999.0,73,-99.99,,,0.00,517,weatherlink.com 1.10,2013-12-16 17:52:00,
2013-12-16 13:07:00,70.2,62.0,30.11,NNE,15,0.0,-999.0,74,-99.99,,,0.00,373,weatherlink.com 1.10,2013-12-16 18:07:00,
2013-12-16 13:22:00,70.1,62.0,30.11,North,350,4.0,-999.0,76,-99.99,,,0.00,352,weatherlink.com 1.10,2013-12-16 18:22:00,
2013-12-16 13:37:00,70.3,62.0,30.11,NNW,344,2.0,-999.0,75,-99.99,,,0.00,452,weatherlink.com 1.10,2013-12-16 18:37:00,
2013-12-16 13:52:00,70.0,62.0,30.10,NNE,15,0.0,-999.0,76,-99.99,,,0.00,418,weatherlink.com 1.10,2013-12-16 18:52:00,
2013-12-16 14:07:00,70.1,63.0,30.10,West,263,0.0,-999.0,77,-99.99,,,0.00,448,weatherlink.com 1.10,2013-12-16 19:07:00,
2013-12-16 14:22:00,71.0,62.0,30.10,NW,306,0.0,-999.0,74,-99.99,,,0.00,394,weatherlink.com 1.10,2013-12-16 19:22:00,
2013-12-16 14:37:00,70.4,63.0,30.10,North,355,0.0,-999.0,76,-99.99,,,0.00,431,weatherlink.com 1.10,2013-12-16 19:37:00,
2013-12-16 14:52:00,70.4,62.0,30.10,NNW,331,1.0,-999.0,74,-99.99,,,0.00,388,weatherlink.com 1.10,2013-12-16 19:52:00,
2013-12-16 15:07:00,70.1,61.0,30.10,NNW,342,3.0,-999.0,74,-99.99,,,0.00,366,weatherlink.com 1.10,2013-12-16 20:07:00,
2013-12-16 15:22:00,70.1,61.0,30.10,WSW,245,0.0,-999.0,73,-99.99,,,0.00,241,weatherlink.com 1.10,2013-12-16 20:22:00,
2013-12-16 15:37:00,69.4,61.0,30.10,WNW,286,1.0,-999.0,74,-99.99,,,0.00,169,weatherlink.com 1.10,2013-12-16 20:37:00,
2013-12-16 15:52:00,69.4,61.0,30.10,NNW,339,0.0,-999.0,74,-99.99,,,0.00,139,weatherlink.com 1.10,2013-12-16 20:52:00,
2013-12-16 16:07:00,68.3,60.0,30.10,NW,304,0.0,-999.0,76,-99.99,,,0.00,98,weatherlink.com 1.10,2013-12-16 21:07:00,
2013-12-16 16:22:00,67.6,60.0,30.10,North,355,0.0,-999.0,77,-99.99,,,0.00,72,weatherlink.com 1.10,2013-12-16 21:22:00,
2013-12-16 16:37:00,67.3,60.0,30.11,West,261,0.0,-999.0,76,-99.99,,,0.00,58,weatherlink.com 1.10,2013-12-16 21:37:00,
2013-12-16 16:52:00,67.1,60.0,30.11,NW,318,0.0,-999.0,77,-99.99,,,0.00,40,weatherlink.com 1.10,2013-12-16 21:52:00,
2013-12-16 17:07:00,66.9,60.0,30.11,NW,326,0.0,-999.0,78,-99.99,,,0.00,32,weatherlink.com 1.10,2013-12-16 22:07:00,
2013-12-16 17:22:00,66.5,60.0,30.11,NW,326,0.0,-999.0,80,-99.99,,,0.00,19,weatherlink.com 1.10,2013-12-16 22:22:00,
2013-12-16 17:37:00,66.1,60.0,30.12,NW,326,0.0,-999.0,81,-99.99,,,0.00,0,weatherlink.com 1.10,2013-12-16 22:37:00,
2013-12-16 17:52:00,65.6,60.0,30.12,NW,326,0.0,-999.0,82,-99.99,,,0.00,0,weatherlink.com 1.10,2013-12-16 22:52:00,
2013-12-16 18:07:00,65.2,60.0,30.13,NW,326,0.0,-999.0,84,-99.99,,,0.00,0,weatherlink.com 1.10,2013-12-16 23:07:00,
2013-12-16 18:23:00,64.7,60.0,30.13,NW,326,0.0,-999.0,85,-99.99,,,0.00,0,weatherlink.com 1.10,2013-12-16 23:23:00,
2013-12-16 18:38:00,64.5,60.0,30.14,NW,326,0.0,-999.0,85,-99.99,,,0.00,0,weatherlink.com 1.10,2013-12-16 23:38:00,
2013-12-16 18:53:00,64.3,60.0,30.14,NW,326,0.0,-999.0,85,-99.99,,,0.00,0,weatherlink.com 1.10,2013-12-16 23:53:00,
2013-12-16 19:08:00,64.0,60.0,30.14,NW,326,0.0,-999.0,86,-99.99,,,0.00,0,weatherlink.com 1.10,2013-12-17 00:08:00,
2013-12-16 19:23:00,63.8,60.0,30.15,NW,326,0.0,-999.0,86,-99.99,,,0.00,0,weatherlink.com 1.10,2013-12-17 00:23:00,
2013-12-16 19:38:00,64.1,59.0,30.16,NNW,337,0.0,-999.0,84,-99.99,,,0.00,0,weatherlink.com 1.10,2013-12-17 00:38:00,
2013-12-16 19:53:00,64.0,59.0,30.16,NNW,340,0.0,-999.0,83,-99.99,,,0.00,0,weatherlink.com 1.10,2013-12-17 00:53:00,
2013-12-16 20:08:00,63.4,57.0,30.17,NNW,340,0.0,-999.0,79,-99.99,,,0.00,0,weatherlink.com 1.10,2013-12-17 01:08:00,
2013-12-16 20:23:00,63.1,56.0,30.17,NNE,15,0.0,-999.0,78,-99.99,,,0.00,0,weatherlink.com 1.10,2013-12-17 01:23:00,
2013-12-16 20:38:00,62.9,56.0,30.17,NNE,15,0.0,-999.0,79,-99.99,,,0.00,0,weatherlink.com 1.10,2013-12-17 01:38:00,
2013-12-16 20:53:00,62.7,56.0,30.17,North,360,0.0,-999.0,79,-99.99,,,0.00,0,weatherlink.com 1.10,2013-12-17 01:53:00,
2013-12-16 21:08:00,62.4,56.0,30.17,NE,44,0.0,-999.0,80,-99.99,,,0.00,0,weatherlink.com 1.10,2013-12-17 02:08:00,
2013-12-16 21:23:00,62.2,56.0,30.17,NNE,28,0.0,-999.0,80,-99.99,,,0.00,0,weatherlink.com 1.10,2013-12-17 02:23:00,
2013-12-16 21:38:00,62.0,56.0,30.18,NNE,26,0.0,-999.0,80,-99.99,,,0.00,0,weatherlink.com 1.10,2013-12-17 02:38:00,
2013-12-16 21:53:00,61.9,55.0,30.18,NE,37,0.0,-999.0,79,-99.99,,,0.00,0,weatherlink.com 1.10,2013-12-17 02:53:00,
2013-12-16 22:08:00,62.0,55.0,30.18,NE,53,0.0,-999.0,79,-99.99,,,0.00,0,weatherlink.com 1.10,2013-12-17 03:08:00,
2013-12-16 22:23:00,61.6,55.0,30.18,NE,34,0.0,-999.0,79,-99.99,,,0.00,0,weatherlink.com 1.10,2013-12-17 03:23:00,
2013-12-16 22:38:00,61.3,55.0,30.18,North,360,0.0,-999.0,81,-99.99,,,0.00,0,weatherlink.com 1.10,2013-12-17 03:38:00,
2013-12-16 22:53:00,60.9,55.0,30.18,NE,40,0.0,-999.0,82,-99.99,,,0.00,0,weatherlink.com 1.10,2013-12-17 03:53:00,
2013-12-16 23:08:00,60.5,55.0,30.17,ENE,75,0.0,-999.0,83,-99.99,,,0.00,0,weatherlink.com 1.10,2013-12-17 04:08:00,
2013-12-16 23:23:00,60.2,56.0,30.18,ENE,77,0.0,-999.0,85,-99.99,,,0.00,0,weatherlink.com 1.10,2013-12-17 04:23:00,
2013-12-16 23:38:00,59.7,56.0,30.17,East,82,0.0,-999.0,86,-99.99,,,0.00,0,weatherlink.com 1.10,2013-12-17 04:38:00,
2013-12-16 23:53:00,59.3,56.0,30.17,ENE,66,0.0,-999.0,87,-99.99,,,0.00,0,weatherlink.com 1.10,2013-12-17 04:53:00,